aviador You're here:

CYMH Decoded Metar

MARY'S HARBOUR in NL, CANADA
Report Time2017-09-25 20:00:00
UTC Time2017-09-25 20:34:53
Flight Rules vfr VFR
Wind090° at 08 kt
W.Decomp.*RWY 11: 8.0 kt HW 0.6 kt RCW
W.Rank090° ranks 28
Current wind is above 090° avg. (7.4)
Visibility9999 m
Phenomena:N/A
Clouds:Few 055 Hf
Expected CloudBase > 2,000 ft AGL from Temp-Dew spread
CeilingNone
Temp06°C (ISA -9)
Dew Point01°C (71% RH)
AAT1.3°C
QNH1017 hPa
Density Alt-1,086 ft
Elevation36 ft
Report Wrong Elevation
Raw Report
CYMH 252000Z AUTO 09008KT 9SM FEW055 06/01 A3002 RMK SLP167=

Extra information for CYMH:More info

Metar Taf Metar & Taf Last 4 Metars F.Rules Stats Wind Profile Meteogram Temp Stats Airport Information Weather charts Add Link Nearby VenuesMetar ALERT Operation Metar Decoded Social comments